createdAt,value
2022-08-26T00:00:00.186Z,24.1
2022-08-26T00:01:00.338Z,24.1
2022-08-26T00:02:00.181Z,24.2
2022-08-26T00:03:00.182Z,24.2
2022-08-26T00:04:00.230Z,24.0
2022-08-26T00:05:00.156Z,24.0
2022-08-26T00:06:00.152Z,24.0
2022-08-26T00:07:00.330Z,24.0
2022-08-26T00:08:00.215Z,23.8
2022-08-26T00:09:00.566Z,23.8
2022-08-26T00:10:00.157Z,23.9
2022-08-26T00:11:00.366Z,23.9
2022-08-26T00:12:00.451Z,23.8
2022-08-26T00:13:00.166Z,23.8
2022-08-26T00:14:00.194Z,23.7
2022-08-26T00:15:00.309Z,23.7
2022-08-26T00:16:00.413Z,23.7
2022-08-26T00:17:00.206Z,23.7
2022-08-26T00:18:00.186Z,23.7
2022-08-26T00:19:00.161Z,23.7
2022-08-26T00:20:00.188Z,23.9
2022-08-26T00:21:00.184Z,23.9
2022-08-26T00:22:00.306Z,23.6
2022-08-26T00:23:00.277Z,23.6
2022-08-26T00:24:00.151Z,23.5
2022-08-26T00:25:00.155Z,23.5
2022-08-26T00:26:00.585Z,23.6
2022-08-26T00:27:00.170Z,23.6
2022-08-26T00:28:00.201Z,23.8
2022-08-26T00:29:00.171Z,23.8
2022-08-26T00:30:01.414Z,23.9
2022-08-26T00:31:00.169Z,23.9
2022-08-26T00:32:00.233Z,23.8
2022-08-26T00:33:00.896Z,23.8
2022-08-26T00:34:00.155Z,24.0
2022-08-26T00:35:00.329Z,24.0
2022-08-26T00:36:00.156Z,24.0
2022-08-26T00:37:00.180Z,24.0
2022-08-26T00:38:00.995Z,23.9
2022-08-26T00:39:00.433Z,23.9
2022-08-26T00:40:00.811Z,23.8
2022-08-26T00:41:00.160Z,23.8
2022-08-26T00:42:00.163Z,23.7
2022-08-26T00:43:00.539Z,23.7
2022-08-26T00:44:00.271Z,23.5
2022-08-26T00:45:00.347Z,23.5
2022-08-26T00:46:05.834Z,23.7
2022-08-26T00:47:02.544Z,23.7
2022-08-26T00:48:01.971Z,23.8
2022-08-26T00:49:04.761Z,23.8
2022-08-26T00:50:01.582Z,23.8
2022-08-26T00:51:03.077Z,23.8
2022-08-26T00:52:01.826Z,23.4
2022-08-26T00:53:02.031Z,23.4
2022-08-26T00:54:03.719Z,23.8
2022-08-26T00:55:02.460Z,23.8
2022-08-26T00:56:00.139Z,23.8
2022-08-26T00:57:04.147Z,23.8
2022-08-26T00:58:00.893Z,23.7
2022-08-26T00:59:06.155Z,23.7
2022-08-26T01:00:01.419Z,23.6
2022-08-26T01:01:00.404Z,23.6
2022-08-26T01:02:02.620Z,23.6
2022-08-26T01:03:00.914Z,23.6
2022-08-26T01:04:00.627Z,23.5
2022-08-26T01:05:01.349Z,23.5
2022-08-26T01:06:01.029Z,23.5
2022-08-26T01:07:00.997Z,23.5
2022-08-26T01:08:00.167Z,23.6
2022-08-26T01:09:00.215Z,23.6
2022-08-26T01:10:01.892Z,23.5
2022-08-26T01:11:01.393Z,23.5
2022-08-26T01:12:01.329Z,23.6
2022-08-26T01:13:02.869Z,23.6
2022-08-26T01:14:01.284Z,23.5
2022-08-26T01:15:01.363Z,23.5
2022-08-26T01:16:01.973Z,23.5
2022-08-26T01:17:00.946Z,23.5
2022-08-26T01:18:02.546Z,23.4
2022-08-26T01:19:04.838Z,23.4
2022-08-26T01:20:05.175Z,23.3
2022-08-26T01:21:03.452Z,23.3
2022-08-26T01:22:04.265Z,23.5
2022-08-26T01:23:03.283Z,23.5
2022-08-26T01:24:00.285Z,23.5
2022-08-26T01:25:00.835Z,23.5
2022-08-26T01:26:03.801Z,23.3
2022-08-26T01:27:03.232Z,23.3
2022-08-26T01:28:01.621Z,23.2
2022-08-26T01:29:01.421Z,23.2
2022-08-26T01:30:00.904Z,23.3
2022-08-26T01:31:01.289Z,23.3
2022-08-26T01:32:01.451Z,23.3
2022-08-26T01:33:02.015Z,23.3
2022-08-26T01:34:10.105Z,23.4
2022-08-26T01:35:00.863Z,23.4
2022-08-26T01:36:00.266Z,23.3
2022-08-26T01:37:03.674Z,23.3
2022-08-26T01:38:00.328Z,23.5
2022-08-26T01:39:00.222Z,23.5
2022-08-26T01:40:00.304Z,23.4
2022-08-26T01:41:00.706Z,23.4
2022-08-26T01:42:03.194Z,23.5
2022-08-26T01:43:00.704Z,23.5
2022-08-26T01:44:01.461Z,23.4
2022-08-26T01:45:04.306Z,23.4
2022-08-26T01:46:00.693Z,23.3
2022-08-26T01:47:00.367Z,23.3
2022-08-26T01:48:02.267Z,23.4
2022-08-26T01:49:02.628Z,23.4
2022-08-26T01:50:01.109Z,23.2
2022-08-26T01:51:01.779Z,23.2
2022-08-26T01:52:01.451Z,23.3
2022-08-26T01:53:02.413Z,23.3
2022-08-26T01:54:00.170Z,23.3
2022-08-26T01:55:00.704Z,23.3
2022-08-26T01:56:01.441Z,23.3
2022-08-26T01:57:00.567Z,23.3
2022-08-26T01:58:02.485Z,23.2
2022-08-26T01:59:02.437Z,23.2
2022-08-26T02:00:00.817Z,23.3
2022-08-26T02:01:00.418Z,23.3
2022-08-26T02:02:00.597Z,23.2
2022-08-26T02:03:01.552Z,23.2
2022-08-26T02:04:09.011Z,23.2
2022-08-26T02:05:02.908Z,23.2
2022-08-26T02:06:02.397Z,23.2
2022-08-26T02:07:02.023Z,23.2
2022-08-26T02:08:01.782Z,23.1
2022-08-26T02:09:01.082Z,23.1
2022-08-26T02:10:00.209Z,23.2
2022-08-26T02:11:00.173Z,23.2
2022-08-26T02:12:00.530Z,23.1
2022-08-26T02:13:00.243Z,23.1
2022-08-26T02:14:02.628Z,23.1
2022-08-26T02:15:02.806Z,23.1
2022-08-26T02:16:01.375Z,23.2
2022-08-26T02:17:00.354Z,23.2
2022-08-26T02:18:01.739Z,23.2
2022-08-26T02:19:00.750Z,23.2
2022-08-26T02:20:01.053Z,23.2
2022-08-26T02:21:00.153Z,23.2
2022-08-26T02:22:02.610Z,23.3
2022-08-26T02:23:00.149Z,23.3
2022-08-26T02:24:10.094Z,23.1
2022-08-26T02:25:08.799Z,23.1
2022-08-26T02:26:10.093Z,23.0
2022-08-26T02:27:00.246Z,23.0
2022-08-26T02:28:00.263Z,22.9
2022-08-26T02:29:02.444Z,22.9
2022-08-26T02:30:03.387Z,23.0
2022-08-26T02:31:00.162Z,23.0
2022-08-26T02:32:00.182Z,23.0
2022-08-26T02:33:01.044Z,23.0
2022-08-26T02:34:10.842Z,23.2
2022-08-26T02:35:00.257Z,23.2
2022-08-26T02:36:00.147Z,23.1
2022-08-26T02:37:01.871Z,23.1
2022-08-26T02:38:00.268Z,23.1
2022-08-26T02:39:00.146Z,23.1
2022-08-26T02:40:00.478Z,23.1
2022-08-26T02:41:00.518Z,23.1
2022-08-26T02:42:00.260Z,23.1
2022-08-26T02:43:00.308Z,23.1
2022-08-26T02:44:00.367Z,23.1
2022-08-26T02:45:00.198Z,23.1
2022-08-26T02:46:02.176Z,23.0
2022-08-26T02:47:00.196Z,23.0
2022-08-26T02:48:07.126Z,22.9
2022-08-26T02:49:00.299Z,22.9
2022-08-26T02:50:00.164Z,22.9
2022-08-26T02:51:00.505Z,22.9
2022-08-26T02:52:00.154Z,23.0
2022-08-26T02:53:00.403Z,23.0
2022-08-26T02:54:00.169Z,23.1
2022-08-26T02:55:00.195Z,23.1
2022-08-26T02:56:00.150Z,22.9
2022-08-26T02:57:00.363Z,22.9
2022-08-26T02:58:00.154Z,23.0
2022-08-26T02:59:00.163Z,23.0
2022-08-26T03:00:00.425Z,23.0
2022-08-26T03:01:00.308Z,23.0
2022-08-26T03:02:00.390Z,23.0
2022-08-26T03:03:00.151Z,23.0
2022-08-26T03:04:01.471Z,23.1
2022-08-26T03:05:02.278Z,23.1
2022-08-26T03:06:00.145Z,23.1
2022-08-26T03:07:00.170Z,23.1
2022-08-26T03:08:00.602Z,23.0
2022-08-26T03:09:00.163Z,23.0
2022-08-26T03:10:00.280Z,23.0
2022-08-26T03:11:01.656Z,23.0
2022-08-26T03:12:00.242Z,23.1
2022-08-26T03:13:00.155Z,23.1
2022-08-26T03:14:01.788Z,23.1
2022-08-26T03:15:00.167Z,23.1
2022-08-26T03:16:00.515Z,23.2
2022-08-26T03:17:00.147Z,23.2
2022-08-26T03:18:00.234Z,23.0
2022-08-26T03:19:00.662Z,23.0
2022-08-26T03:20:00.208Z,23.1
2022-08-26T03:21:04.125Z,23.1
2022-08-26T03:22:00.584Z,23.0
2022-08-26T03:23:00.149Z,23.0
2022-08-26T03:24:00.499Z,23.0
2022-08-26T03:25:01.047Z,23.0
2022-08-26T03:26:00.241Z,23.0
2022-08-26T03:27:00.211Z,23.0
2022-08-26T03:28:00.177Z,22.9
2022-08-26T03:29:00.146Z,22.9
2022-08-26T03:30:00.293Z,23.0
2022-08-26T03:31:00.204Z,23.0
2022-08-26T03:32:00.166Z,23.0
2022-08-26T03:33:00.632Z,23.0
2022-08-26T03:34:00.156Z,23.0
2022-08-26T03:35:00.164Z,23.0
2022-08-26T03:36:00.163Z,23.1
2022-08-26T03:37:00.163Z,23.1
2022-08-26T03:38:00.693Z,23.1
2022-08-26T03:39:00.146Z,23.1
2022-08-26T03:40:00.324Z,23.0
2022-08-26T03:41:00.156Z,23.0
2022-08-26T03:42:00.242Z,22.9
2022-08-26T03:43:00.445Z,22.9
2022-08-26T03:44:01.803Z,23.0
2022-08-26T03:45:00.152Z,23.0
2022-08-26T03:46:04.056Z,22.9
2022-08-26T03:47:00.151Z,22.9
2022-08-26T03:48:00.431Z,23.0
2022-08-26T03:49:01.161Z,23.0
2022-08-26T03:50:00.319Z,22.9
2022-08-26T03:51:00.576Z,22.9
2022-08-26T03:52:00.531Z,22.9
2022-08-26T03:53:00.691Z,22.9
2022-08-26T03:54:00.200Z,23.0
2022-08-26T03:55:00.209Z,23.0
2022-08-26T03:56:00.150Z,23.0
2022-08-26T03:57:00.176Z,23.0
2022-08-26T03:58:00.639Z,22.8
2022-08-26T03:59:00.156Z,22.8
2022-08-26T04:00:00.302Z,22.8
2022-08-26T04:01:00.160Z,22.8
2022-08-26T04:02:00.261Z,22.7
2022-08-26T04:03:00.258Z,22.7
2022-08-26T04:04:00.839Z,22.7
2022-08-26T04:05:00.179Z,22.7
2022-08-26T04:06:00.154Z,22.8
2022-08-26T04:07:00.301Z,22.8
2022-08-26T04:08:00.149Z,22.7
2022-08-26T04:09:02.325Z,22.7
2022-08-26T04:10:00.297Z,22.7
2022-08-26T04:11:00.172Z,22.7
2022-08-26T04:12:00.367Z,22.5
2022-08-26T04:13:00.157Z,22.5
2022-08-26T04:14:01.930Z,22.6
2022-08-26T04:15:00.154Z,22.6
2022-08-26T04:16:00.252Z,22.6
2022-08-26T04:17:00.148Z,22.6
2022-08-26T04:18:00.155Z,22.5
2022-08-26T04:19:00.209Z,22.5
2022-08-26T04:20:00.150Z,22.6
2022-08-26T04:21:00.155Z,22.6
2022-08-26T04:22:00.167Z,22.8
2022-08-26T04:23:00.184Z,22.8
2022-08-26T04:24:00.223Z,22.8
2022-08-26T04:25:00.174Z,22.8
2022-08-26T04:26:00.576Z,22.7
2022-08-26T04:27:00.155Z,22.7
2022-08-26T04:28:00.193Z,22.7
2022-08-26T04:29:00.165Z,22.7
2022-08-26T04:30:00.166Z,22.7
2022-08-26T04:31:00.293Z,22.7
2022-08-26T04:32:00.153Z,22.8
2022-08-26T04:33:00.148Z,22.8
2022-08-26T04:34:01.000Z,22.8
2022-08-26T04:35:00.731Z,22.8
2022-08-26T04:36:01.319Z,22.8
2022-08-26T04:37:00.553Z,22.8
2022-08-26T04:38:00.340Z,22.7
2022-08-26T04:39:00.826Z,22.7
2022-08-26T04:40:00.352Z,22.5
2022-08-26T04:41:00.621Z,22.5
2022-08-26T04:42:00.164Z,22.7
2022-08-26T04:43:00.156Z,22.7
2022-08-26T04:44:00.962Z,22.8
2022-08-26T04:45:00.605Z,22.8
2022-08-26T04:46:01.753Z,22.8
2022-08-26T04:47:00.164Z,22.8
2022-08-26T04:48:00.151Z,22.8
2022-08-26T04:49:00.140Z,22.8
2022-08-26T04:50:00.160Z,22.8
2022-08-26T04:51:00.423Z,22.8
2022-08-26T04:52:00.146Z,22.9
2022-08-26T04:53:00.171Z,22.9
2022-08-26T04:54:00.478Z,22.8
2022-08-26T04:55:00.165Z,22.8
2022-08-26T04:56:00.171Z,22.7
2022-08-26T04:57:00.221Z,22.7
2022-08-26T04:58:00.149Z,22.7
2022-08-26T04:59:00.612Z,22.7
2022-08-26T05:00:00.190Z,22.8
2022-08-26T05:01:00.590Z,22.8
2022-08-26T05:02:00.210Z,22.8
2022-08-26T05:03:00.142Z,22.8
2022-08-26T05:04:00.546Z,22.9
2022-08-26T05:05:00.236Z,22.9
2022-08-26T05:06:02.513Z,22.8
2022-08-26T05:07:02.655Z,22.8
2022-08-26T05:08:00.141Z,22.7
2022-08-26T05:09:00.223Z,22.7
2022-08-26T05:10:00.953Z,22.8
2022-08-26T05:11:02.739Z,22.8
2022-08-26T05:12:00.165Z,22.7
2022-08-26T05:13:00.183Z,22.7
2022-08-26T05:14:02.299Z,22.9
2022-08-26T05:15:00.153Z,22.9
2022-08-26T05:16:02.541Z,22.8
2022-08-26T05:17:00.216Z,22.8
2022-08-26T05:18:01.394Z,22.9
2022-08-26T05:19:00.164Z,22.9
2022-08-26T05:20:00.315Z,22.8
2022-08-26T05:21:00.548Z,22.8
2022-08-26T05:22:00.159Z,22.6
2022-08-26T05:23:00.162Z,22.6
2022-08-26T05:24:00.161Z,22.6
2022-08-26T05:25:00.221Z,22.6
2022-08-26T05:26:00.573Z,22.7
2022-08-26T05:27:00.166Z,22.7
2022-08-26T05:28:00.151Z,22.8
2022-08-26T05:29:00.153Z,22.8
2022-08-26T05:30:00.200Z,22.8
2022-08-26T05:31:00.680Z,22.8
2022-08-26T05:32:00.334Z,22.8
2022-08-26T05:33:00.367Z,22.8
2022-08-26T05:34:00.660Z,22.9
2022-08-26T05:35:00.176Z,22.9
2022-08-26T05:36:04.865Z,22.8
2022-08-26T05:37:00.151Z,22.8
2022-08-26T05:38:00.840Z,22.6
2022-08-26T05:39:01.085Z,22.6
2022-08-26T05:40:01.339Z,22.8
2022-08-26T05:41:00.150Z,22.8
2022-08-26T05:42:00.177Z,22.9
2022-08-26T05:43:00.166Z,22.9
2022-08-26T05:44:00.759Z,22.8
2022-08-26T05:45:00.148Z,22.8
2022-08-26T05:46:05.743Z,22.8
2022-08-26T05:47:00.150Z,22.8
2022-08-26T05:48:00.145Z,22.9
2022-08-26T05:49:00.497Z,22.9
2022-08-26T05:50:00.180Z,22.9
2022-08-26T05:51:01.928Z,22.9
2022-08-26T05:52:00.154Z,22.8
2022-08-26T05:53:00.150Z,22.8
2022-08-26T05:54:00.774Z,22.8
2022-08-26T05:55:00.151Z,22.8
2022-08-26T05:56:01.363Z,22.8
2022-08-26T05:57:00.145Z,22.8
2022-08-26T05:58:00.348Z,23.0
2022-08-26T05:59:00.792Z,23.0
2022-08-26T06:00:00.162Z,23.0
2022-08-26T06:01:01.830Z,23.0
2022-08-26T06:02:00.747Z,22.9
2022-08-26T06:03:00.263Z,22.9
2022-08-26T06:04:01.679Z,22.9
2022-08-26T06:05:00.192Z,22.9
2022-08-26T06:06:09.637Z,22.9
2022-08-26T06:07:00.152Z,22.9
2022-08-26T06:08:00.151Z,23.0
2022-08-26T06:09:01.554Z,23.0
2022-08-26T06:10:28.247Z,23.0
2022-08-26T06:11:01.987Z,23.0
2022-08-26T06:12:00.167Z,23.0
2022-08-26T06:13:04.622Z,23.0
2022-08-26T06:14:03.788Z,23.0
2022-08-26T06:15:00.159Z,23.0
2022-08-26T06:16:02.096Z,23.0
2022-08-26T06:17:00.207Z,23.0
2022-08-26T06:18:00.149Z,23.1
2022-08-26T06:19:00.776Z,23.1
2022-08-26T06:20:00.211Z,23.1
2022-08-26T06:21:00.957Z,23.1
2022-08-26T06:22:00.279Z,23.1
2022-08-26T06:23:00.137Z,23.1
2022-08-26T06:24:03.054Z,23.0
2022-08-26T06:25:00.147Z,23.0
2022-08-26T06:26:00.315Z,23.2
2022-08-26T06:27:02.024Z,23.2
2022-08-26T06:28:00.160Z,23.1
2022-08-26T06:29:00.539Z,23.1
2022-08-26T06:30:00.175Z,23.2
2022-08-26T06:31:01.007Z,23.2
2022-08-26T06:32:01.053Z,23.0
2022-08-26T06:33:00.147Z,23.0
2022-08-26T06:34:00.647Z,23.2
2022-08-26T06:35:00.152Z,23.2
2022-08-26T06:36:00.147Z,23.1
2022-08-26T06:37:01.377Z,23.1
2022-08-26T06:38:00.150Z,23.1
2022-08-26T06:39:02.095Z,23.1
2022-08-26T06:40:00.322Z,23.2
2022-08-26T06:41:00.151Z,23.2
2022-08-26T06:42:00.453Z,23.1
2022-08-26T06:43:00.147Z,23.1
2022-08-26T06:44:00.595Z,23.2
2022-08-26T06:45:00.141Z,23.2
2022-08-26T06:46:01.579Z,23.2
2022-08-26T06:47:00.161Z,23.2
2022-08-26T06:48:00.150Z,23.2
2022-08-26T06:49:00.229Z,23.2
2022-08-26T06:50:00.152Z,23.2
2022-08-26T06:51:01.902Z,23.2
2022-08-26T06:52:00.199Z,23.0
2022-08-26T06:53:00.181Z,23.0
2022-08-26T06:54:00.823Z,23.1
2022-08-26T06:55:00.149Z,23.1
2022-08-26T06:56:01.949Z,23.0
2022-08-26T06:57:00.175Z,23.0
2022-08-26T06:58:00.152Z,23.1
2022-08-26T06:59:00.529Z,23.1
2022-08-26T07:00:00.192Z,23.2
2022-08-26T07:01:03.696Z,23.2
2022-08-26T07:02:00.295Z,23.1
2022-08-26T07:03:00.205Z,23.1
2022-08-26T07:04:01.593Z,23.2
2022-08-26T07:05:00.149Z,23.2
2022-08-26T07:06:01.130Z,23.1
2022-08-26T07:07:00.145Z,23.1
2022-08-26T07:08:00.171Z,23.1
2022-08-26T07:09:01.977Z,23.1
2022-08-26T07:10:00.154Z,23.2
2022-08-26T07:11:04.660Z,23.2
2022-08-26T07:12:00.158Z,23.3
2022-08-26T07:13:00.138Z,23.3
2022-08-26T07:14:00.440Z,23.2
2022-08-26T07:15:00.236Z,23.2
2022-08-26T07:16:02.877Z,23.4
2022-08-26T07:17:00.157Z,23.4
2022-08-26T07:18:00.563Z,23.5
2022-08-26T07:19:01.192Z,23.5
2022-08-26T07:20:00.243Z,23.6
2022-08-26T07:21:01.221Z,23.6
2022-08-26T07:22:01.017Z,23.4
2022-08-26T07:23:00.148Z,23.4
2022-08-26T07:24:00.648Z,23.6
2022-08-26T07:25:00.175Z,23.6
2022-08-26T07:26:04.688Z,23.6
2022-08-26T07:27:01.068Z,23.6
2022-08-26T07:28:00.158Z,23.5
2022-08-26T07:29:00.232Z,23.5
2022-08-26T07:30:00.560Z,23.4
2022-08-26T07:31:04.634Z,23.4
2022-08-26T07:32:00.438Z,23.5
2022-08-26T07:33:00.150Z,23.5
2022-08-26T07:34:00.171Z,23.5
2022-08-26T07:35:00.153Z,23.5
2022-08-26T07:36:00.346Z,23.5
2022-08-26T07:37:00.156Z,23.5
2022-08-26T07:38:00.235Z,23.5
2022-08-26T07:39:00.327Z,23.5
2022-08-26T07:40:00.304Z,23.6
2022-08-26T07:41:00.569Z,23.6
2022-08-26T07:42:00.772Z,23.8
2022-08-26T07:43:00.164Z,23.8
2022-08-26T07:44:00.170Z,23.7
2022-08-26T07:45:00.377Z,23.7
2022-08-26T07:46:00.637Z,23.6
2022-08-26T07:47:00.311Z,23.6
2022-08-26T07:48:00.153Z,23.7
2022-08-26T07:49:00.239Z,23.7
2022-08-26T07:50:00.185Z,23.8
2022-08-26T07:51:00.285Z,23.8
2022-08-26T07:52:00.525Z,23.8
2022-08-26T07:53:00.795Z,23.8
2022-08-26T07:54:00.318Z,23.9
2022-08-26T07:55:00.764Z,23.9
2022-08-26T07:56:00.168Z,23.9
2022-08-26T07:57:00.174Z,23.9
2022-08-26T07:58:00.351Z,23.7
2022-08-26T07:59:00.185Z,23.7
2022-08-26T08:00:00.724Z,23.8
2022-08-26T08:01:00.213Z,23.8
2022-08-26T08:02:00.282Z,23.8
2022-08-26T08:03:00.650Z,23.8
2022-08-26T08:04:00.160Z,23.8
2022-08-26T08:05:00.252Z,23.8
2022-08-26T08:06:00.158Z,24.0
2022-08-26T08:07:00.164Z,24.0
2022-08-26T08:08:26.602Z,24.0
2022-08-26T08:09:00.168Z,24.0
2022-08-26T08:10:00.171Z,24.0
2022-08-26T08:11:00.369Z,24.0
2022-08-26T08:12:00.236Z,24.0
2022-08-26T08:13:00.155Z,24.0
2022-08-26T08:14:00.288Z,24.1
2022-08-26T08:15:00.152Z,24.1
2022-08-26T08:16:00.170Z,24.1
2022-08-26T08:17:00.339Z,24.1
2022-08-26T08:18:01.005Z,24.2
2022-08-26T08:19:00.249Z,24.2
2022-08-26T08:20:00.186Z,24.2
2022-08-26T08:21:21.432Z,24.2
2022-08-26T08:22:00.155Z,24.4
2022-08-26T08:23:00.980Z,24.4
2022-08-26T08:24:00.169Z,24.2
2022-08-26T08:25:00.168Z,24.2
2022-08-26T08:26:01.140Z,24.2
2022-08-26T08:27:00.823Z,24.2
2022-08-26T08:28:00.173Z,24.4
2022-08-26T08:29:00.157Z,24.4
2022-08-26T08:30:00.266Z,24.3
2022-08-26T08:31:00.240Z,24.3
2022-08-26T08:32:00.218Z,24.4
2022-08-26T08:33:00.145Z,24.4
2022-08-26T08:34:00.166Z,24.6
2022-08-26T08:35:00.920Z,24.6
2022-08-26T08:36:00.555Z,24.6
2022-08-26T08:37:00.174Z,24.6
2022-08-26T08:38:00.155Z,24.6
2022-08-26T08:39:00.164Z,24.6
2022-08-26T08:40:00.317Z,24.6
2022-08-26T08:41:00.801Z,24.6
2022-08-26T08:42:10.090Z,24.7
2022-08-26T08:43:03.120Z,24.7
2022-08-26T08:44:00.568Z,24.8
2022-08-26T08:45:04.407Z,24.8
2022-08-26T08:46:04.469Z,24.8
2022-08-26T08:47:03.406Z,24.8
2022-08-26T08:48:03.123Z,24.9
2022-08-26T08:49:00.209Z,24.9
2022-08-26T08:50:06.010Z,24.9
2022-08-26T08:51:05.226Z,24.9
2022-08-26T08:52:05.666Z,24.8
2022-08-26T08:53:03.206Z,24.8
2022-08-26T08:54:00.822Z,24.8
2022-08-26T08:55:00.915Z,24.8
2022-08-26T08:56:10.092Z,24.8
2022-08-26T08:57:00.136Z,24.8
2022-08-26T08:58:07.956Z,24.7
2022-08-26T08:59:10.095Z,24.6
2022-08-26T09:00:04.377Z,24.6
2022-08-26T09:01:03.377Z,24.6
2022-08-26T09:02:03.475Z,24.5
2022-08-26T09:03:06.497Z,24.5
2022-08-26T09:04:00.127Z,24.4
2022-08-26T09:05:10.104Z,24.3
2022-08-26T09:06:00.458Z,24.3
2022-08-26T09:07:01.293Z,24.3
2022-08-26T09:08:03.653Z,24.4
2022-08-26T09:09:01.684Z,24.4
2022-08-26T09:10:02.803Z,24.2
2022-08-26T09:11:01.083Z,24.2
2022-08-26T09:12:01.121Z,24.2
2022-08-26T09:13:01.184Z,24.2
2022-08-26T09:14:00.345Z,24.1
2022-08-26T09:15:03.880Z,24.1
2022-08-26T09:16:10.299Z,24.2
2022-08-26T09:17:10.185Z,24.2
2022-08-26T09:18:10.279Z,24.2
2022-08-26T09:19:10.094Z,24.4
2022-08-26T09:20:06.015Z,24.4
2022-08-26T09:21:02.880Z,24.4
2022-08-26T09:22:00.182Z,24.3
2022-08-26T09:23:00.434Z,24.3
2022-08-26T09:24:00.176Z,24.4
2022-08-26T09:25:01.319Z,24.4
2022-08-26T09:26:01.300Z,24.4
2022-08-26T09:27:00.374Z,24.4
2022-08-26T09:28:00.162Z,24.3
2022-08-26T09:29:01.444Z,24.3
2022-08-26T09:30:00.158Z,24.3
2022-08-26T09:31:11.471Z,24.2
2022-08-26T09:32:10.093Z,24.2
2022-08-26T09:33:03.027Z,24.2
2022-08-26T09:34:04.779Z,24.2
2022-08-26T09:35:04.009Z,24.2
2022-08-26T09:36:10.095Z,24.2
2022-08-26T09:37:00.154Z,24.2
2022-08-26T09:38:00.455Z,24.2
2022-08-26T09:39:00.165Z,24.2
2022-08-26T09:40:10.137Z,24.2
2022-08-26T09:41:02.800Z,24.2
2022-08-26T09:42:00.135Z,24.2
2022-08-26T09:43:05.308Z,24.2
2022-08-26T09:44:03.385Z,24.1
2022-08-26T09:45:02.150Z,24.1
2022-08-26T09:46:10.127Z,24.2
2022-08-26T09:47:01.574Z,24.2
2022-08-26T09:48:01.377Z,24.1
2022-08-26T09:49:10.088Z,24.0
2022-08-26T09:50:00.153Z,24.0
2022-08-26T09:51:01.381Z,24.0
2022-08-26T09:52:03.541Z,24.1
2022-08-26T09:53:03.385Z,24.1
2022-08-26T09:54:01.175Z,24.3
2022-08-26T09:55:03.341Z,24.3
2022-08-26T09:56:10.088Z,24.3
2022-08-26T09:57:10.085Z,24.3
2022-08-26T09:58:08.002Z,24.3
2022-08-26T09:59:00.514Z,24.3
2022-08-26T10:00:00.465Z,24.3
2022-08-26T10:01:01.672Z,24.3
2022-08-26T10:02:12.101Z,24.4
2022-08-26T10:03:01.927Z,24.4
2022-08-26T10:04:05.123Z,24.2
2022-08-26T10:05:09.213Z,24.2
2022-08-26T10:06:03.341Z,24.1
2022-08-26T10:07:01.623Z,24.1
2022-08-26T10:08:10.091Z,24.0
2022-08-26T10:09:02.746Z,24.0
2022-08-26T10:10:01.580Z,23.9
2022-08-26T10:11:04.280Z,23.9
2022-08-26T10:12:03.398Z,23.8
2022-08-26T10:13:03.786Z,23.8
2022-08-26T10:14:03.527Z,23.8
2022-08-26T10:15:03.173Z,23.8
2022-08-26T10:16:01.140Z,24.1
2022-08-26T10:17:06.983Z,24.1
2022-08-26T10:18:05.875Z,24.0
2022-08-26T10:19:04.886Z,24.0
2022-08-26T10:20:23.152Z,24.1
2022-08-26T10:21:02.817Z,24.1
2022-08-26T10:22:04.339Z,24.1
2022-08-26T10:23:04.852Z,24.1
2022-08-26T10:24:01.358Z,24.1
2022-08-26T10:25:02.655Z,24.1
2022-08-26T10:26:07.535Z,24.0
2022-08-26T10:27:04.927Z,24.0
2022-08-26T10:28:06.956Z,24.3
2022-08-26T10:29:07.268Z,24.3
2022-08-26T10:30:04.129Z,24.2
2022-08-26T10:31:03.617Z,24.2
2022-08-26T10:32:03.733Z,24.1
2022-08-26T10:33:03.653Z,24.1
2022-08-26T10:34:00.804Z,24.1
2022-08-26T10:35:00.820Z,24.1
2022-08-26T10:36:04.800Z,24.2
2022-08-26T10:37:13.788Z,24.2
2022-08-26T10:38:06.390Z,24.1
2022-08-26T10:39:03.166Z,24.1
2022-08-26T10:40:01.191Z,24.1
2022-08-26T10:41:03.478Z,24.1
2022-08-26T10:42:03.172Z,24.1
2022-08-26T10:43:07.080Z,24.1
2022-08-26T10:44:01.878Z,24.2
2022-08-26T10:45:11.928Z,23.9
2022-08-26T10:46:03.100Z,23.9
2022-08-26T10:47:02.512Z,23.9
2022-08-26T10:48:03.776Z,23.9
2022-08-26T10:49:04.712Z,23.9
2022-08-26T10:50:03.407Z,24.0
2022-08-26T10:51:00.341Z,24.0
2022-08-26T10:52:12.318Z,24.1
2022-08-26T10:53:04.330Z,24.1
2022-08-26T10:54:04.257Z,24.2
2022-08-26T10:55:06.259Z,24.2
2022-08-26T10:56:18.547Z,24.1
2022-08-26T10:57:09.598Z,24.1
2022-08-26T10:58:08.956Z,24.2
2022-08-26T10:59:01.141Z,24.2
2022-08-26T11:00:04.256Z,23.9
2022-08-26T11:01:10.500Z,23.9
2022-08-26T11:02:06.632Z,24.1
2022-08-26T11:03:21.898Z,24.1
2022-08-26T11:04:01.288Z,24.1
2022-08-26T11:05:03.365Z,24.1
2022-08-26T11:06:10.090Z,24.1
2022-08-26T11:07:10.091Z,24.2
2022-08-26T11:08:10.245Z,24.2
2022-08-26T11:09:02.797Z,24.2
2022-08-26T11:10:03.023Z,24.2
2022-08-26T11:11:00.172Z,24.2
2022-08-26T11:12:03.907Z,24.1
2022-08-26T11:13:02.307Z,24.1
2022-08-26T11:14:03.610Z,23.9
2022-08-26T11:15:02.237Z,23.9
2022-08-26T11:16:01.305Z,24.0
2022-08-26T11:17:00.377Z,24.0
2022-08-26T11:18:01.662Z,24.1
2022-08-26T11:19:00.255Z,24.1
2022-08-26T11:20:02.214Z,24.2
2022-08-26T11:21:00.155Z,24.2
2022-08-26T11:22:02.284Z,24.2
2022-08-26T11:23:10.097Z,24.4
2022-08-26T11:24:00.147Z,24.4
2022-08-26T11:25:02.818Z,24.4
2022-08-26T11:26:07.582Z,24.4
2022-08-26T11:27:00.157Z,24.4
2022-08-26T11:28:00.581Z,24.4
2022-08-26T11:29:00.179Z,24.4
2022-08-26T11:30:10.151Z,24.4
2022-08-26T11:31:00.287Z,24.4
2022-08-26T11:32:00.281Z,24.2
2022-08-26T11:33:00.179Z,24.2
2022-08-26T11:34:01.293Z,24.1
2022-08-26T11:35:01.395Z,24.1
2022-08-26T11:36:00.173Z,24.2
2022-08-26T11:37:01.728Z,24.2
2022-08-26T11:38:01.552Z,24.2
2022-08-26T11:39:01.036Z,24.2
2022-08-26T11:40:01.186Z,24.2
2022-08-26T11:41:04.521Z,24.2
2022-08-26T11:42:10.092Z,24.1
2022-08-26T11:43:10.090Z,24.3
2022-08-26T11:44:00.165Z,24.3
2022-08-26T11:45:05.716Z,24.3
2022-08-26T11:46:02.754Z,24.3
2022-08-26T11:47:00.387Z,24.3
2022-08-26T11:48:10.163Z,24.2
2022-08-26T11:49:01.981Z,24.2
2022-08-26T11:50:07.790Z,24.4
2022-08-26T11:51:03.245Z,24.4
2022-08-26T11:52:10.088Z,24.3
2022-08-26T11:53:01.149Z,24.3
2022-08-26T11:54:10.087Z,24.5
2022-08-26T11:55:01.799Z,24.5
2022-08-26T11:56:03.017Z,24.6
2022-08-26T11:57:04.777Z,24.6
2022-08-26T11:58:01.560Z,24.4
2022-08-26T11:59:01.856Z,24.4
2022-08-26T12:00:00.776Z,24.4
2022-08-26T12:01:01.746Z,24.4
2022-08-26T12:02:00.224Z,24.3
2022-08-26T12:03:03.745Z,24.3
2022-08-26T12:04:01.808Z,24.4
2022-08-26T12:05:00.642Z,24.4
2022-08-26T12:06:00.406Z,24.5
2022-08-26T12:07:00.882Z,24.5
2022-08-26T12:08:04.679Z,24.5
2022-08-26T12:09:01.478Z,24.5
2022-08-26T12:10:02.303Z,24.4
2022-08-26T12:11:01.264Z,24.4
2022-08-26T12:12:10.087Z,24.4
2022-08-26T12:13:00.872Z,24.4
2022-08-26T12:14:04.895Z,24.6
2022-08-26T12:15:04.730Z,24.6
2022-08-26T12:16:00.193Z,24.7
2022-08-26T12:17:09.769Z,24.7
2022-08-26T12:18:10.276Z,24.7
2022-08-26T12:19:00.176Z,24.7
2022-08-26T12:20:00.271Z,24.6
2022-08-26T12:21:08.520Z,24.6
2022-08-26T12:22:03.252Z,24.6
2022-08-26T12:23:00.388Z,24.6
2022-08-26T12:24:00.310Z,24.7
2022-08-26T12:25:01.719Z,24.7
2022-08-26T12:26:03.569Z,24.8
2022-08-26T12:27:10.087Z,24.8
2022-08-26T12:28:02.663Z,24.8
2022-08-26T12:29:19.810Z,24.7
2022-08-26T12:30:02.731Z,24.7
2022-08-26T12:31:01.602Z,24.7
2022-08-26T12:32:09.266Z,24.7
2022-08-26T12:33:21.860Z,24.7
2022-08-26T12:34:01.657Z,24.7
2022-08-26T12:35:01.164Z,24.7
2022-08-26T12:36:00.628Z,24.6
2022-08-26T12:38:00.668Z,24.7
2022-08-26T12:39:08.969Z,24.7
2022-08-26T12:40:10.211Z,24.7
2022-08-26T12:41:00.182Z,24.7
2022-08-26T12:42:02.123Z,24.6
2022-08-26T12:43:01.272Z,24.6
2022-08-26T12:44:00.207Z,24.6
2022-08-26T12:45:01.871Z,24.6
2022-08-26T12:46:00.297Z,24.6
2022-08-26T12:47:02.808Z,24.6
2022-08-26T12:48:04.955Z,24.5
2022-08-26T12:49:00.190Z,24.5
2022-08-26T12:50:05.344Z,24.4
2022-08-26T12:51:00.699Z,24.4
2022-08-26T12:52:00.250Z,24.5
2022-08-26T12:53:03.384Z,24.5
2022-08-26T12:54:01.021Z,24.4
2022-08-26T12:55:04.125Z,24.4
2022-08-26T12:56:01.733Z,24.3
2022-08-26T12:57:08.265Z,24.3
2022-08-26T12:58:10.238Z,24.4
2022-08-26T12:59:01.704Z,24.4
2022-08-26T13:00:10.096Z,24.4
2022-08-26T13:01:01.249Z,24.4
2022-08-26T13:02:00.284Z,24.4
2022-08-26T13:03:00.564Z,24.4
2022-08-26T13:04:00.158Z,24.4
2022-08-26T13:05:01.024Z,24.4
2022-08-26T13:06:16.146Z,24.2
2022-08-26T13:07:10.088Z,24.2
2022-08-26T13:08:09.176Z,24.2
2022-08-26T13:09:01.149Z,24.2
2022-08-26T13:10:00.169Z,24.1
2022-08-26T13:11:02.504Z,24.1
2022-08-26T13:12:00.161Z,24.1
2022-08-26T13:13:00.177Z,24.1
2022-08-26T13:14:06.890Z,24.3
2022-08-26T13:15:01.267Z,24.3
2022-08-26T13:16:00.255Z,24.2
2022-08-26T13:17:00.182Z,24.2
2022-08-26T13:18:00.320Z,24.2
2022-08-26T13:19:01.576Z,24.2